Stations météo

réclame
Mon MeteoGroup
Buzenol, Belgique (6484): Température de l'air & dewpoint: 11.08.2018 13:00:00 - 17.08.2018 13:00:00 (CEST)Buzenol, Belgique (6484): Vitesse du vent & gusts: 11.08.2018 13:00:00 - 17.08.2018 13:00:00 (CEST)Buzenol, Belgique (6484): Direction du vent: 11.08.2018 13:00:00 - 17.08.2018 13:00:00 (CEST)Buzenol, Belgique (6484): reduced air pressure: 11.08.2018 13:00:00 - 17.08.2018 13:00:00 (CEST)Buzenol, Belgique (6484): Ensoleillement: 11.08.2018 13:00:00 - 17.08.2018 13:00:00 (CEST)Buzenol, Belgique (6484): Quantités de précipitations: 11.08.2018 13:00:00 - 17.08.2018 13:00:00 (CEST)
Date & Time tt [°C] td [°C] ff [km/h] ff [knt] fx [km/h] fx [knt] dd ppp [hPa] sd [min] rr [mm]
17.08.2018 13:00:00 21,7 15,0 7 4 18 10 N 1017,5 - -
17.08.2018 12:00:00 21,2 15,5 5 3 13 7 WNW 1017,2 56 0,0
17.08.2018 11:00:00 19,1 15,1 7 4 - - NE 1017,2 - -
17.08.2018 10:00:00 17,7 15,4 7 4 18 10 ENE 1016,6 - -
17.08.2018 09:00:00 17,2 14,2 7 4 26 14 ENE 1016,7 14 0,0
17.08.2018 08:00:00 16,5 13,8 18 10 45 24 ENE 1015,8 7 0,0
17.08.2018 07:00:00 15,8 13,2 21 11 37 20 NE 1015,5 0 0,0
17.08.2018 06:00:00 16,2 13,7 18 10 27 15 NNE 1014,7 0 0,0
17.08.2018 05:00:00 16,3 13,9 18 10 34 18 NE 1014,2 0 0,0
17.08.2018 04:00:00 15,7 13,8 19 10 30 16 N 1014,1 0 0,0
17.08.2018 03:00:00 14,6 13,5 7 4 15 8 N 1014,0 0 0,0
17.08.2018 02:00:00 15,1 13,9 11 6 14 8 N 1014,1 0 0,0
17.08.2018 01:00:00 15,3 14,2 6 3 15 8 N 1014,3 0 0,0
17.08.2018 00:00:00 15,7 14,6 6 4 12 6 N 1014,2 0 0,0
16.08.2018 23:00:00 16,4 15,1 11 6 13 7 N 1014,0 0 0,0
16.08.2018 22:00:00 17,5 15,9 9 5 10 5 NNE 1013,8 0 0,0
16.08.2018 21:00:00 19,6 17,1 8 4 9 5 NNE 1013,6 9 0,0
16.08.2018 20:00:00 22,0 16,2 4 2 6 4 NNE 1013,1 60 0,0
16.08.2018 19:00:00 25,9 14,8 4 2 10 6 NNE 1012,7 60 0,0
16.08.2018 18:00:00 26,0 14,1 5 3 15 8 SSW 1013,4 60 0,0
16.08.2018 17:00:00 26,0 14,4 8 5 16 8 SSW 1013,9 60 0,0
16.08.2018 16:00:00 25,6 14,1 9 5 19 10 SW 1014,5 60 0,0
16.08.2018 15:00:00 25,1 14,0 13 7 21 12 SW 1015,0 60 0,0
16.08.2018 14:00:00 23,9 13,8 7 4 18 10 W 1015,6 60 0,0
16.08.2018 13:00:00 22,5 14,1 10 5 22 12 WSW 1016,2 60 0,0
16.08.2018 12:00:00 21,3 13,8 9 5 17 9 W 1017,0 60 0,0
16.08.2018 11:00:00 19,7 14,7 8 4 14 8 SW 1017,4 60 0,0
16.08.2018 10:00:00 17,7 14,4 6 3 8 4 SSW 1018,0 60 0,0
16.08.2018 09:00:00 14,8 14,2 0 0 8 4 N 1018,3 60 0,0
16.08.2018 08:00:00 10,7 10,0 7 4 9 5 N 1019,2 55 0,0
16.08.2018 07:00:00 9,0 8,2 6 3 9 5 NNE 1019,8 0 0,0
16.08.2018 06:00:00 9,3 8,6 7 4 9 5 NNE 1019,6 0 0,0
16.08.2018 05:00:00 9,7 8,9 6 4 10 5 NNE 1019,8 0 0,0
16.08.2018 04:00:00 10,3 9,5 8 4 9 5 NNE 1020,1 0 0,0
16.08.2018 03:00:00 10,9 10,1 5 3 6 4 NE 1020,1 0 0,0
16.08.2018 02:00:00 11,3 10,5 7 4 7 4 NNE 1020,3 0 0,0
16.08.2018 01:00:00 11,9 11,0 7 4 8 5 NE 1020,5 0 0,0
16.08.2018 00:00:00 12,9 11,9 6 4 7 4 NNE 1020,6 0 0,0
15.08.2018 23:00:00 13,9 12,7 6 3 7 4 NNE 1020,6 0 0,0
15.08.2018 22:00:00 15,1 13,5 5 3 8 4 NE 1020,4 0 0,0
15.08.2018 21:00:00 17,2 14,0 5 3 11 6 N 1020,0 9 0,0
15.08.2018 20:00:00 19,9 14,0 7 4 13 7 NW 1019,6 60 0,0
15.08.2018 19:00:00 20,7 13,8 9 5 19 10 WNW 1019,8 59 0,0
15.08.2018 18:00:00 20,8 13,9 13 7 21 11 W 1020,1 53 0,0
15.08.2018 17:00:00 21,3 14,0 12 6 19 11 WNW 1020,2 48 0,0
15.08.2018 16:00:00 20,9 13,5 11 6 20 11 W 1020,5 1 0,0
15.08.2018 15:00:00 20,5 13,2 9 5 21 11 WNW 1020,6 27 0,0
15.08.2018 14:00:00 20,1 12,3 7 4 18 10 WNW 1020,8 22 0,0
15.08.2018 13:00:00 18,9 13,1 6 3 20 11 WNW 1021,2 21 0,0
15.08.2018 12:00:00 19,0 13,5 10 5 21 11 WNW 1021,3 43 0,0
15.08.2018 11:00:00 17,6 13,3 10 5 19 10 N 1021,7 19 0,0
15.08.2018 10:00:00 16,8 13,4 9 5 18 10 N 1021,5 60 0,0
15.08.2018 09:00:00 14,4 13,3 4 2 7 4 SW 1021,5 40 0,0
15.08.2018 08:00:00 12,4 11,7 4 2 8 5 N 1021,4 33 0,0
15.08.2018 07:00:00 11,1 10,3 5 3 8 4 NE 1021,2 0 0,0
15.08.2018 06:00:00 11,7 10,9 6 3 7 4 NNE 1020,9 0 0,0
15.08.2018 05:00:00 13,0 12,1 0 0 7 4 N 1020,7 0 0,0
15.08.2018 04:00:00 13,0 12,1 4 2 5 3 NNE 1020,6 0 0,0
15.08.2018 03:00:00 13,9 13,1 4 2 10 5 NNW 1020,5 0 0,0
15.08.2018 02:00:00 14,2 13,0 7 4 11 6 N 1020,9 0 0,0
15.08.2018 01:00:00 14,9 13,7 5 3 9 5 N 1020,7 0 0,0
15.08.2018 00:00:00 16,2 14,8 4 2 8 5 N 1020,2 0 0,0
14.08.2018 23:00:00 16,4 15,2 4 2 7 4 N 1019,9 0 0,0
14.08.2018 22:00:00 16,4 14,9 5 3 6 4 NNE 1019,3 0 0,0
14.08.2018 21:00:00 17,6 15,3 4 2 4 2 ENE 1018,6 9 0,0
14.08.2018 20:00:00 20,0 14,7 4 2 9 5 NNW 1017,9 28 0,0
14.08.2018 19:00:00 19,8 15,2 4 2 12 7 WNW 1017,8 1 0,0
14.08.2018 18:00:00 20,1 14,8 5 3 18 10 WNW 1017,8 0 0,0
14.08.2018 17:00:00 20,1 14,2 8 4 18 10 NW 1017,7 9 0,0
14.08.2018 16:00:00 20,1 14,5 9 5 22 12 WNW 1017,3 5 0,0
14.08.2018 15:00:00 19,3 14,5 13 7 24 13 NW 1017,3 15 0,0
14.08.2018 14:00:00 17,7 14,2 14 8 23 12 WNW 1017,5 1 0,0
14.08.2018 13:00:00 17,1 14,5 9 5 18 10 W 1017,5 0 0,0
14.08.2018 12:00:00 16,0 13,9 7 4 16 8 NW 1017,4 0 0,0
14.08.2018 11:00:00 15,5 13,4 8 4 18 10 NW 1017,1 0 0,0
14.08.2018 10:00:00 14,9 13,2 10 5 20 11 NW 1016,6 0 0,0
14.08.2018 09:00:00 14,3 12,9 5 3 16 9 NW 1016,1 0 0,0
14.08.2018 08:00:00 14,3 12,9 7 4 16 9 NW 1015,5 0 0,0
14.08.2018 07:00:00 14,1 12,7 8 4 15 8 NW 1014,6 0 0,0
14.08.2018 06:00:00 13,6 12,6 6 3 12 6 W 1014,2 0 0,0
14.08.2018 05:00:00 12,7 11,5 4 2 10 5 WSW 1014,3 0 0,0
14.08.2018 04:00:00 13,5 12,1 4 2 13 7 NNW 1013,8 0 0,0
14.08.2018 03:00:00 14,2 12,8 8 4 13 7 WNW 1013,4 0 0,0
14.08.2018 02:00:00 13,6 12,5 7 4 12 7 WSW 1013,5 0 0,0
14.08.2018 01:00:00 14,5 13,1 8 4 16 9 W 1013,0 0 0,0
14.08.2018 00:00:00 15,0 13,2 8 5 15 8 W 1012,4 0 0,0
13.08.2018 23:00:00 15,7 13,4 9 5 14 7 WNW 1011,7 0 0,0
13.08.2018 22:00:00 16,0 13,0 5 3 16 9 NW 1011,2 0 0,0
13.08.2018 21:00:00 16,8 13,0 8 4 23 12 NNW 1010,4 1 0,0
13.08.2018 20:00:00 17,4 13,9 7 4 28 15 W 1009,6 25 0,0
13.08.2018 19:00:00 18,8 13,8 15 8 24 13 WNW 1009,4 33 0,0
13.08.2018 18:00:00 18,1 15,8 9 5 23 12 WSW 1009,0 39 0,3
13.08.2018 17:00:00 16,2 14,1 14 8 38 20 WNW 1009,5 9 5,4
13.08.2018 16:00:00 20,7 13,6 22 12 37 20 W 1008,4 25 0,0
13.08.2018 15:00:00 20,4 13,5 23 13 38 21 W 1008,7 20 0,0
13.08.2018 14:00:00 20,0 13,9 18 10 42 23 W 1009,0 26 0,0
13.08.2018 13:00:00 19,4 14,6 22 12 39 21 W 1009,0 17 0,0
13.08.2018 12:00:00 18,4 15,2 19 10 33 18 W 1009,1 6 0,0
13.08.2018 11:00:00 17,9 15,5 21 11 33 18 WSW 1008,9 22 0,0
13.08.2018 10:00:00 16,6 15,2 11 6 16 9 SW 1009,1 10 0,8
13.08.2018 09:00:00 15,3 14,2 8 4 12 7 WNW 1010,0 0 0,1
13.08.2018 08:00:00 15,0 14,0 7 4 19 10 SSW 1008,9 0 0,2
13.08.2018 07:00:00 15,1 13,5 6 3 17 9 SSE 1008,0 0 1,7
13.08.2018 06:00:00 15,1 13,5 11 6 22 12 NNW 1009,6 0 3,5
13.08.2018 05:00:00 14,4 13,3 5 3 11 6 NNE 1007,7 0 0,4
13.08.2018 04:00:00 15,0 12,6 5 3 13 7 N 1009,0 0 0,1
13.08.2018 03:00:00 13,8 10,6 4 2 6 3 E 1008,8 0 0,0
13.08.2018 02:00:00 13,5 10,3 4 2 7 4 E 1009,4 0 0,0
13.08.2018 01:00:00 14,2 10,8 4 2 5 3 E 1010,1 0 0,0
13.08.2018 00:00:00 14,2 11,3 4 2 8 4 E 1011,1 0 0,0
12.08.2018 23:00:00 14,5 11,7 5 3 10 5 NNE 1010,9 0 0,0
12.08.2018 22:00:00 16,3 12,3 8 5 10 5 NE 1011,1 0 0,0
12.08.2018 21:00:00 18,7 12,7 6 3 7 4 NNE 1011,1 16 0,0
12.08.2018 20:00:00 23,9 10,4 7 4 14 7 W 1010,7 60 0,0
12.08.2018 19:00:00 25,4 7,8 9 5 19 10 WSW 1011,1 60 0,0
12.08.2018 18:00:00 25,3 6,6 15 8 23 12 WSW 1011,8 59 0,0
12.08.2018 17:00:00 25,0 7,0 13 7 23 12 SW 1012,7 53 0,0
12.08.2018 16:00:00 25,3 6,5 14 8 25 13 SW 1013,5 60 0,0
12.08.2018 15:00:00 24,6 5,4 10 6 23 13 SSW 1014,3 60 0,0
12.08.2018 14:00:00 23,9 6,7 11 6 22 12 WSW 1015,1 60 0,0
12.08.2018 13:00:00 22,7 7,9 13 7 21 12 S 1016,1 60 0,0
12.08.2018 12:00:00 21,9 8,7 11 6 19 10 SSW 1016,7 60 0,0
12.08.2018 11:00:00 19,8 9,4 10 6 16 9 SSW 1017,4 60 0,0
12.08.2018 10:00:00 17,3 9,8 6 3 9 5 SW 1018,2 60 0,0
12.08.2018 09:00:00 13,9 11,3 4 2 8 4 NE 1018,9 60 0,0
12.08.2018 08:00:00 8,9 8,0 7 4 10 5 NE 1020,1 45 0,0
12.08.2018 07:00:00 7,2 6,4 8 4 12 6 NE 1020,3 5 0,0
12.08.2018 06:00:00 7,2 6,4 9 5 12 6 NNE 1020,7 0 0,0
12.08.2018 05:00:00 7,6 6,7 7 4 9 5 NNE 1021,4 0 0,0
12.08.2018 04:00:00 8,1 7,2 7 4 9 5 NNE 1021,8 0 0,0
12.08.2018 03:00:00 8,6 7,7 7 4 11 6 NNE 1022,1 0 0,0
12.08.2018 02:00:00 9,2 8,2 7 4 9 5 N 1022,5 0 0,0
12.08.2018 01:00:00 9,7 8,6 6 4 10 5 NNE 1022,8 0 0,0
12.08.2018 00:00:00 10,5 9,0 7 4 10 5 N 1023,1 0 0,0
11.08.2018 23:00:00 11,7 9,9 8 4 10 6 NNE 1023,3 0 0,0
11.08.2018 22:00:00 13,3 10,6 9 5 10 5 NE 1022,8 0 0,0
11.08.2018 21:00:00 16,3 9,3 4 2 11 6 NNE 1022,5 - -
11.08.2018 20:00:00 20,3 7,0 7 4 11 6 WNW 1022,1 60 0,0
11.08.2018 19:00:00 20,3 7,2 7 4 23 12 NW 1022,4 59 0,0
11.08.2018 18:00:00 21,0 7,1 10 5 18 10 WNW 1022,5 48 0,0
11.08.2018 17:00:00 20,9 6,5 11 6 26 14 W 1023,0 55 0,0
11.08.2018 16:00:00 21,1 7,3 16 9 34 19 W 1023,3 58 0,0
11.08.2018 15:00:00 20,3 7,3 13 7 29 16 NW 1023,7 47 0,0
11.08.2018 14:00:00 19,5 7,6 14 8 35 19 NW 1023,9 52 0,0
11.08.2018 13:00:00 18,8 8,2 14 8 31 17 WNW 1024,0 44 0,0

tt = Température de l'air
td = dewpoint
ff = Vitesse du vent
fx = gusts
dd = Direction du vent
ppp = reduced air pressure
sd = Ensoleillement
rr = Quantités de précipitations

stations d'obs. à proximité